SBNF

Ministro Victor Konder International Airport

Navegantes, Brazil
TAF SBNF 210300Z 2106/2206 15009KT 8000 RA BKN008 BKN020 TN14/2108Z T X15/2118Z TEMPO 2120/2124 6000 SHRA BKN010 BKN020 FEW030TCU RMK PDJ
Issued Valid From Valid To
Aug-21 @ 03:00 UTC
(15 hours ago)
Aug-21 @ 06:00 UTC
(12 hours ago)
Aug-22 @ 06:00 UTC
(in 12 hours)
Aug-21 @ 06:00 to Aug-22 @ 06:00
TAF SBNF 210300Z 2106/2206 15009KT 8000 RA BKN008 BKN020 TN14/2108Z T X15/2118Z
Wind Visibility Clouds Conditions
150° at 9 knots 7,998 meters
  • Broken at 800' AGL
  • Broken at 2,000' AGL
  • Rain
Temporary Aug-21 @ 20:00 to Aug-22 @ 00:00
TEMPO 2120/2124 6000 SHRA BKN010 BKN020 FEW030TCU RMK PDJ
Visibility Clouds Conditions
6,003 meters
  • Broken at 1,000' AGL
  • Broken at 2,000' AGL
  • Few at 3,000' AGL
  • Rain
TAF SBNF 210300Z 2106/2206 15009KT 8000 RA BKN008 BKN020 TN14/2108Z T X15/2118Z TEMPO 2120/2124 6000 SHRA BKN010 BKN020 FEW030TCU RMK PDJ
Issued Aug-21 @ 03:00 UTC
(15 hours ago)
Valid From Aug-21 @ 06:00 UTC
(12 hours ago)
Valid To Aug-22 @ 06:00 UTC
(in 12 hours)
Aug-21 @ 06:00 - Aug-22 @ 06:00
Wind Visibility
150° at 9 knots 7,998 meters
Clouds
  • Broken at 800' AGL
  • Broken at 2,000' AGL
Conditions
  • Rain
Temporary Aug-21 @ 20:00 - Aug-22 @ 00:00
Clouds
  • Broken at 1,000' AGL
  • Broken at 2,000' AGL
  • Few at 3,000' AGL
Conditions
  • Rain